Time;durP1;ratioP1;P1;durP2;ratioP2;P2;SDS_P1;SDS_P2;PMS_P1;PMS_P2;Temp;Humidity;BMP_temperature;BMP_pressure;BME280_temperature;BME280_humidity;BME280_pressure;Samples;Min_cycle;Max_cycle;Signal;HPM_P1;HPM_P2
2023/09/22 00:00:31;;;;;;;0.20;0.20;;;;;;;18.19;100.00;94669.16;5070504;28;20210;-76
2023/09/22 00:02:57;;;;;;;0.85;0.60;;;;;;;18.29;99.74;94675.94;5074569;28;20206;-76
2023/09/22 00:05:26;;;;;;;0.20;0.20;;;;;;;18.44;97.03;94664.75;5077035;28;20211;-76
2023/09/22 00:07:52;;;;;;;1.38;0.85;;;;;;;18.56;94.91;94679.38;5070533;28;20207;-76
2023/09/22 00:10:19;;;;;;;0.47;0.47;;;;;;;18.62;94.09;94664.16;5069875;28;20257;-76
2023/09/22 00:12:46;;;;;;;0.73;0.73;;;;;;;18.58;95.03;94698.97;5069769;28;20294;-76
2023/09/22 00:15:13;;;;;;;3.20;0.68;;;;;;;18.46;100.00;94681.59;5069119;28;20256;-76
2023/09/22 00:17:40;;;;;;;0.45;0.45;;;;;;;18.38;100.00;94651.75;5069949;28;20636;-77
2023/09/22 00:20:12;;;;;;;0.50;0.50;;;;;;;18.31;100.00;94657.94;5069884;28;20198;-78
2023/09/22 00:22:40;;;;;;;0.93;0.77;;;;;;;18.34;97.89;94668.16;5073196;28;20302;-78
2023/09/22 00:25:09;;;;;;;0.30;0.30;;;;;;;18.37;100.00;94672.91;5072956;28;20230;-76
2023/09/22 00:27:35;;;;;;;0.70;0.63;;;;;;;18.24;100.00;94682.53;5073141;28;20210;-75
2023/09/22 00:30:04;;;;;;;0.25;0.25;;;;;;;18.17;100.00;94679.75;5072022;28;20199;-77
2023/09/22 00:32:31;;;;;;;0.30;0.30;;;;;;;18.04;100.00;94649.00;5072879;28;20318;-78
2023/09/22 00:34:57;;;;;;;0.65;0.60;;;;;;;17.97;100.00;94642.69;5071909;28;20229;-78
2023/09/22 00:37:24;;;;;;;1.95;0.95;;;;;;;18.09;98.05;94658.88;5072689;28;20260;-78
2023/09/22 00:39:53;;;;;;;0.20;0.20;;;;;;;18.23;98.52;94661.78;5072398;28;20647;-78
2023/09/22 00:42:22;;;;;;;2.88;0.43;;;;;;;18.14;100.00;94657.75;5072550;28;20207;-78
2023/09/22 00:44:48;;;;;;;0.35;0.35;;;;;;;18.00;100.00;94663.88;5072042;28;20211;-78
2023/09/22 00:47:15;;;;;;;1.45;0.30;;;;;;;17.85;100.00;94667.59;5071951;28;20241;-78
2023/09/22 00:49:43;;;;;;;0.30;0.30;;;;;;;17.65;100.00;94659.50;5072334;28;20214;-78
2023/09/22 00:52:10;;;;;;;0.85;0.85;;;;;;;17.49;100.00;94650.66;5072365;28;20489;-78
2023/09/22 00:54:37;;;;;;;0.45;0.45;;;;;;;17.46;100.00;94648.66;5072652;28;20231;-78
2023/09/22 00:57:06;;;;;;;0.22;0.22;;;;;;;17.42;100.00;94628.66;5072290;28;20207;-78
2023/09/22 00:59:34;;;;;;;0.60;0.60;;;;;;;17.47;100.00;94609.16;5072263;28;20248;-77
2023/09/22 01:02:01;;;;;;;0.65;0.65;;;;;;;17.41;100.00;94616.13;5075761;28;20206;-77
2023/09/22 01:04:29;;;;;;;0.20;0.20;;;;;;;17.40;100.00;94636.44;5075977;28;20587;-77
2023/09/22 01:06:56;;;;;;;0.30;0.30;;;;;;;17.36;100.00;94624.63;5075618;28;20556;-77
2023/09/22 01:09:23;;;;;;;1.55;0.65;;;;;;;17.37;100.00;94645.38;5072000;28;20231;-76
2023/09/22 01:11:50;;;;;;;3.28;0.80;;;;;;;17.22;100.00;94646.38;5021895;28;1445191;-76
2023/09/22 01:14:18;;;;;;;0.25;0.25;;;;;;;17.22;100.00;94657.31;5073410;28;20241;-78
2023/09/22 01:16:45;;;;;;;0.22;0.22;;;;;;;17.11;100.00;94661.81;5073428;28;20211;-79
2023/09/22 01:19:15;;;;;;;0.28;0.28;;;;;;;16.99;100.00;94649.94;5073012;28;20210;-77
2023/09/22 01:21:44;;;;;;;0.68;0.52;;;;;;;16.92;100.00;94633.41;5073085;28;20194;-76
2023/09/22 01:24:12;;;;;;;0.47;0.47;;;;;;;16.98;100.00;94645.59;5073062;28;20689;-75
2023/09/22 01:26:39;;;;;;;0.20;0.20;;;;;;;17.01;100.00;94647.63;5073556;28;20214;-76
2023/09/22 01:29:06;;;;;;;0.40;0.40;;;;;;;17.12;100.00;94641.50;5072948;28;20203;-77
2023/09/22 01:31:34;;;;;;;0.52;0.52;;;;;;;17.04;100.00;94646.88;5072175;28;20256;-76
2023/09/22 01:34:01;;;;;;;1.73;1.40;;;;;;;17.02;100.00;94668.34;5072914;28;20229;-76
2023/09/22 01:36:28;;;;;;;0.20;0.20;;;;;;;16.97;100.00;94679.59;5073052;28;20279;-77
2023/09/22 01:38:59;;;;;;;0.30;0.30;;;;;;;16.98;100.00;94659.28;5072833;28;20272;-76
2023/09/22 01:41:26;;;;;;;0.20;0.20;;;;;;;16.93;100.00;94656.88;5072855;28;20209;-76
2023/09/22 01:43:53;;;;;;;0.30;0.30;;;;;;;16.93;100.00;94651.41;5073044;28;20198;-78
2023/09/22 01:46:20;;;;;;;0.20;0.20;;;;;;;16.97;100.00;94649.50;5072763;28;20703;-76
2023/09/22 01:48:47;;;;;;;0.40;0.40;;;;;;;16.93;100.00;94645.94;5072648;28;20206;-75
2023/09/22 01:51:14;;;;;;;0.52;0.52;;;;;;;16.84;100.00;94637.19;5072345;28;20202;-76
2023/09/22 01:53:41;;;;;;;0.35;0.35;;;;;;;16.83;100.00;94619.19;5073028;28;20237;-76
2023/09/22 01:56:09;;;;;;;0.38;0.38;;;;;;;16.84;100.00;94604.34;5072598;28;20212;-76
2023/09/22 01:58:36;;;;;;;0.13;0.13;;;;;;;16.81;100.00;94585.91;5073147;28;20209;-76
2023/09/22 02:01:03;;;;;;;0.20;0.20;;;;;;;16.81;100.00;94588.66;5071137;28;20217;-76
2023/09/22 02:03:30;;;;;;;0.68;0.68;;;;;;;16.85;100.00;94594.19;5072972;28;20191;-76
2023/09/22 02:05:58;;;;;;;0.10;0.10;;;;;;;16.77;100.00;94609.72;5078983;28;20238;-75
2023/09/22 02:08:25;;;;;;;0.20;0.20;;;;;;;16.70;100.00;94607.66;5072951;28;20539;-76
2023/09/22 02:10:52;;;;;;;0.20;0.20;;;;;;;16.65;100.00;94615.38;5071953;28;20317;-75
2023/09/22 02:13:20;;;;;;;0.32;0.32;;;;;;;16.64;100.00;94613.81;5072508;28;20462;-76
2023/09/22 02:15:47;;;;;;;0.60;0.60;;;;;;;16.64;100.00;94608.34;5072230;28;20199;-76
2023/09/22 02:18:14;;;;;;;0.28;0.28;;;;;;;16.59;100.00;94608.59;5071865;28;20696;-83
2023/09/22 02:20:43;;;;;;;0.47;0.22;;;;;;;16.57;100.00;94605.44;5071715;28;20202;-83
2023/09/22 02:23:13;;;;;;;0.40;0.40;;;;;;;16.50;100.00;94619.00;5072040;28;20199;-83
2023/09/22 02:25:40;;;;;;;0.73;0.45;;;;;;;16.57;100.00;94599.97;5071982;28;20551;-83
2023/09/22 02:28:07;;;;;;;0.35;0.30;;;;;;;16.62;100.00;94607.88;5071460;28;20237;-82
2023/09/22 02:30:37;;;;;;;3.13;0.40;;;;;;;16.51;100.00;94612.38;5071799;28;20214;-84
2023/09/22 02:33:04;;;;;;;0.10;0.10;;;;;;;16.44;100.00;94617.72;5071501;28;20210;-81
2023/09/22 02:35:31;;;;;;;0.68;0.68;;;;;;;16.45;100.00;94616.56;5071687;28;20226;-82
2023/09/22 02:37:58;;;;;;;0.20;0.20;;;;;;;16.49;100.00;94620.16;5071814;28;20195;-83
2023/09/22 02:40:25;;;;;;;0.17;0.17;;;;;;;16.42;100.00;94623.56;5071299;28;20207;-82
2023/09/22 02:42:52;;;;;;;0.85;0.73;;;;;;;16.37;100.00;94625.81;5071135;28;20246;-83
2023/09/22 02:45:19;;;;;;;0.98;0.73;;;;;;;16.39;100.00;94627.03;5071302;28;20297;-84
2023/09/22 02:47:47;;;;;;;0.90;0.90;;;;;;;16.40;100.00;94625.84;5071443;28;20562;-83
2023/09/22 02:50:18;;;;;;;0.38;0.38;;;;;;;16.38;100.00;94630.94;5071288;28;20579;-81
2023/09/22 02:52:45;;;;;;;0.57;0.35;;;;;;;16.33;100.00;94640.22;5070955;28;20203;-83
2023/09/22 02:55:13;;;;;;;0.43;0.30;;;;;;;16.34;100.00;94636.31;5071062;28;20249;-82
2023/09/22 02:57:42;;;;;;;0.30;0.30;;;;;;;16.38;100.00;94636.41;5071321;28;20215;-82
2023/09/22 03:00:14;;;;;;;1.10;0.90;;;;;;;16.31;100.00;94634.31;5071130;28;20598;-84
2023/09/22 03:02:41;;;;;;;0.25;0.25;;;;;;;16.22;100.00;94636.50;5074628;28;20643;-84
2023/09/22 03:05:14;;;;;;;0.38;0.38;;;;;;;16.18;100.00;94646.56;5077422;28;20201;-84
2023/09/22 03:07:41;;;;;;;0.35;0.35;;;;;;;16.15;100.00;94647.28;5071266;28;20286;-84
2023/09/22 03:10:10;;;;;;;13.88;1.42;;;;;;;16.14;100.00;94653.09;5070312;28;20269;-83
2023/09/22 03:12:38;;;;;;;0.38;0.35;;;;;;;16.12;100.00;94649.97;5071125;28;20210;-84
2023/09/22 03:15:05;;;;;;;0.25;0.25;;;;;;;16.14;100.00;94656.63;5070735;28;20582;-83
2023/09/22 03:17:32;;;;;;;0.20;0.20;;;;;;;16.16;100.00;94662.53;5061785;28;20195;-84
2023/09/22 03:19:59;;;;;;;2.08;0.70;;;;;;;16.21;100.00;94656.78;5070494;28;20206;-84
2023/09/22 03:22:27;;;;;;;0.30;0.30;;;;;;;16.18;100.00;94657.50;5070314;28;20207;-84
2023/09/22 03:24:54;;;;;;;0.35;0.35;;;;;;;16.10;100.00;94655.78;5070668;28;20210;-84
2023/09/22 03:27:21;;;;;;;0.68;0.52;;;;;;;16.14;100.00;94653.09;5070594;28;20555;-83
2023/09/22 03:29:47;;;;;;;0.30;0.30;;;;;;;16.05;100.00;94650.63;5070396;28;20214;-84
2023/09/22 03:32:18;;;;;;;0.30;0.30;;;;;;;15.99;100.00;94649.31;5070310;28;20257;-77
2023/09/22 03:34:47;;;;;;;0.43;0.43;;;;;;;15.91;100.00;94650.34;5070540;28;20265;-83
2023/09/22 03:37:13;;;;;;;0.22;0.22;;;;;;;15.83;100.00;94643.16;5070575;28;20256;-84
2023/09/22 03:39:42;;;;;;;0.22;0.22;;;;;;;15.82;100.00;94644.31;5070272;28;20203;-83
2023/09/22 03:42:09;;;;;;;0.20;0.20;;;;;;;15.84;100.00;94634.63;5069985;28;20204;-85
2023/09/22 03:44:36;;;;;;;0.63;0.40;;;;;;;15.75;100.00;94638.69;5070822;28;20198;-84
2023/09/22 03:47:02;;;;;;;0.10;0.10;;;;;;;15.77;100.00;94622.75;5069955;28;20218;-84
2023/09/22 03:49:29;;;;;;;0.55;0.45;;;;;;;15.76;100.00;94632.09;5070211;28;20273;-83
2023/09/22 03:51:56;;;;;;;0.47;0.45;;;;;;;15.78;100.00;94627.84;5070216;28;20667;-83
2023/09/22 03:54:23;;;;;;;0.57;0.57;;;;;;;15.80;100.00;94632.94;5070365;28;20621;-84
2023/09/22 03:56:51;;;;;;;0.10;0.10;;;;;;;15.83;100.00;94626.78;5070461;28;20202;-85
2023/09/22 03:59:18;;;;;;;0.45;0.45;;;;;;;15.79;100.00;94631.38;5070038;28;20233;-84
2023/09/22 04:01:45;;;;;;;0.40;0.40;;;;;;;15.75;100.00;94636.75;5074370;28;20647;-84
2023/09/22 04:04:12;;;;;;;0.10;0.10;;;;;;;15.67;100.00;94634.25;5071103;28;20302;-83
2023/09/22 04:06:39;;;;;;;1.20;0.38;;;;;;;15.65;100.00;94637.34;5075120;28;20253;-84
2023/09/22 04:09:07;;;;;;;0.55;0.55;;;;;;;15.69;100.00;94637.41;5070577;28;20195;-82
2023/09/22 04:11:34;;;;;;;0.10;0.10;;;;;;;15.71;100.00;94637.84;5069660;28;20240;-84
2023/09/22 04:14:03;;;;;;;0.55;0.55;;;;;;;15.68;100.00;94638.56;5070122;28;20253;-84
2023/09/22 04:16:30;;;;;;;0.20;0.20;;;;;;;15.68;100.00;94641.28;5069829;28;20226;-84
2023/09/22 04:18:56;;;;;;;0.45;0.45;;;;;;;15.69;100.00;94637.41;5069906;28;20207;-82
2023/09/22 04:21:24;;;;;;;0.25;0.25;;;;;;;15.72;100.00;94642.94;5069712;28;20207;-84
2023/09/22 04:23:57;;;;;;;0.40;0.40;;;;;;;15.78;100.00;94646.16;5070572;28;20615;-84
2023/09/22 04:26:28;;;;;;;0.30;0.30;;;;;;;15.86;100.00;94653.34;5069961;28;20256;-83
2023/09/22 04:28:56;;;;;;;0.20;0.20;;;;;;;15.82;100.00;94652.50;5071323;28;20240;-84
2023/09/22 04:31:25;;;;;;;0.40;0.40;;;;;;;15.84;100.00;94650.22;5069745;28;20246;-84
2023/09/22 04:33:52;;;;;;;0.93;0.45;;;;;;;15.84;100.00;94642.00;5069495;28;20243;-84
2023/09/22 04:36:21;;;;;;;0.20;0.20;;;;;;;16.09;100.00;94635.09;5069561;28;20231;-84
2023/09/22 04:38:49;;;;;;;0.32;0.32;;;;;;;16.43;100.00;94643.47;5069661;28;20215;-83
2023/09/22 04:41:18;;;;;;;0.52;0.38;;;;;;;16.57;100.00;94643.72;5066395;28;20582;-80
2023/09/22 04:43:45;;;;;;;0.30;0.30;;;;;;;17.05;100.00;94644.94;5069652;28;20282;-82
2023/09/22 04:46:12;;;;;;;0.30;0.30;;;;;;;17.34;100.00;94643.41;5069603;28;20211;-79
2023/09/22 04:48:40;;;;;;;0.20;0.20;;;;;;;17.42;100.00;94642.34;5069549;28;20233;-82
2023/09/22 04:51:07;;;;;;;0.20;0.20;;;;;;;17.56;100.00;94625.31;5069747;28;20211;-80
2023/09/22 04:53:34;;;;;;;0.20;0.20;;;;;;;18.10;100.00;94638.50;5069985;28;20206;-81
2023/09/22 04:56:02;;;;;;;0.52;0.52;;;;;;;18.36;100.00;94638.41;5069370;28;20234;-82
2023/09/22 04:58:29;;;;;;;0.30;0.30;;;;;;;18.93;100.00;94644.44;5070039;28;20214;-83
2023/09/22 05:00:57;;;;;;;0.40;0.40;;;;;;;19.21;100.00;94648.56;5071921;28;20199;-78
2023/09/22 05:03:25;;;;;;;0.50;0.50;;;;;;;19.99;100.00;94635.25;5070303;28;20501;-84
2023/09/22 05:05:53;;;;;;;0.60;0.60;;;;;;;20.74;100.00;94628.00;5076904;28;20214;-85
2023/09/22 05:08:20;;;;;;;1.50;1.40;;;;;;;20.97;100.00;94642.19;5072755;28;20210;-83
2023/09/22 05:10:50;;;;;;;0.57;0.57;;;;;;;21.59;100.00;94636.25;5072640;28;20250;-81
2023/09/22 05:13:17;;;;;;;0.52;0.52;;;;;;;22.35;100.00;94635.56;5072892;28;20203;-79
2023/09/22 05:15:45;;;;;;;0.32;0.32;;;;;;;22.72;100.00;94634.16;5072803;28;20226;-86
2023/09/22 05:18:13;;;;;;;0.55;0.55;;;;;;;22.94;100.00;94643.91;5072955;28;20222;-82
2023/09/22 05:20:41;;;;;;;1.85;1.00;;;;;;;23.37;100.00;94639.56;5072721;28;20257;-85
2023/09/22 05:23:10;;;;;;;0.95;0.32;;;;;;;23.70;100.00;94651.16;5072595;28;20286;-85
2023/09/22 05:25:40;;;;;;;0.30;0.30;;;;;;;23.77;100.00;94651.09;5072601;28;20195;-81
2023/09/22 05:28:10;;;;;;;0.70;0.70;;;;;;;23.40;100.00;94647.06;5048703;28;20203;-76
2023/09/22 05:30:38;;;;;;;1.00;1.00;;;;;;;23.41;100.00;94650.59;5067885;28;20241;-81
2023/09/22 05:33:07;;;;;;;0.32;0.32;;;;;;;23.17;100.00;94657.94;5072586;28;20242;-81
2023/09/22 05:35:36;;;;;;;0.30;0.30;;;;;;;23.49;100.00;94667.94;5065276;28;20226;-83
2023/09/22 05:38:03;;;;;;;1.20;0.75;;;;;;;24.19;100.00;94665.63;5072325;28;20693;-85
2023/09/22 05:40:33;;;;;;;0.57;0.57;;;;;;;23.60;100.00;94665.88;5072680;28;20656;-81
2023/09/22 05:43:01;;;;;;;0.50;0.50;;;;;;;23.21;100.00;94663.44;5072057;28;20246;-78
2023/09/22 05:45:28;;;;;;;6.10;0.95;;;;;;;23.96;100.00;94669.84;5072566;28;20203;-83
2023/09/22 05:47:55;;;;;;;0.43;0.43;;;;;;;24.71;100.00;94650.31;5071333;28;20214;-80
2023/09/22 05:50:23;;;;;;;1.58;1.17;;;;;;;22.48;100.00;94667.06;5072129;28;20218;-78
2023/09/22 05:52:50;;;;;;;1.77;1.45;;;;;;;22.65;100.00;94668.94;5072435;28;20623;-81
2023/09/22 05:55:18;;;;;;;0.60;0.60;;;;;;;24.15;100.00;94664.88;5071845;28;20226;-80
2023/09/22 05:57:47;;;;;;;1.50;0.85;;;;;;;25.26;100.00;94665.75;5071936;28;20674;-80
2023/09/22 06:00:17;;;;;;;2.03;1.58;;;;;;;25.64;100.00;94657.22;5072254;28;20489;-80
2023/09/22 06:02:52;;;;;;;1.77;1.60;;;;;;;25.54;100.00;94658.16;5076321;28;20207;-79
2023/09/22 06:05:19;;;;;;;0.63;0.60;;;;;;;25.68;100.00;94661.50;5078997;28;20206;-81
2023/09/22 06:07:47;;;;;;;3.40;1.98;;;;;;;25.04;100.00;94654.19;5072267;28;20197;-80
2023/09/22 06:10:14;;;;;;;1.50;1.40;;;;;;;24.39;100.00;94669.34;5070899;28;20242;-80
2023/09/22 06:12:41;;;;;;;3.13;1.85;;;;;;;24.55;100.00;94664.00;5071684;28;20570;-81
2023/09/22 06:15:12;;;;;;;2.63;1.95;;;;;;;25.58;100.00;94658.88;5071426;28;20222;-80
2023/09/22 06:17:39;;;;;;;3.58;1.92;;;;;;;26.13;100.00;94672.94;5070804;28;20374;-79
2023/09/22 06:20:13;;;;;;;2.35;1.98;;;;;;;25.05;100.00;94666.06;5071338;28;20211;-81
2023/09/22 06:22:43;;;;;;;4.95;2.25;;;;;;;24.82;100.00;94674.31;5071976;28;20202;-83
2023/09/22 06:25:10;;;;;;;3.70;1.98;;;;;;;25.06;100.00;94673.97;5071448;28;20554;-83
2023/09/22 06:27:37;;;;;;;1.65;1.10;;;;;;;24.48;100.00;94677.94;5072035;28;20207;-78
2023/09/22 06:30:12;;;;;;;3.28;1.58;;;;;;;24.49;100.00;94695.34;5071495;28;20643;-84
2023/09/22 06:32:41;;;;;;;1.25;1.08;;;;;;;24.63;100.00;94684.06;5071813;28;20650;-82
2023/09/22 06:35:10;;;;;;;1.20;0.98;;;;;;;25.12;100.00;94685.41;5070720;28;20238;-80
2023/09/22 06:37:38;;;;;;;2.03;1.17;;;;;;;25.21;100.00;94685.63;5070969;28;20207;-80
2023/09/22 06:40:11;;;;;;;4.13;2.45;;;;;;;25.79;100.00;94687.06;5067085;28;20203;-81
2023/09/22 06:42:39;;;;;;;5.88;1.02;;;;;;;25.75;100.00;94694.66;5063769;28;20298;-82
2023/09/22 06:45:11;;;;;;;1.98;1.35;;;;;;;25.93;100.00;94691.56;5070694;28;20203;-81
2023/09/22 06:47:38;;;;;;;4.22;3.10;;;;;;;25.66;100.00;94699.19;5065809;28;20216;-82
2023/09/22 06:50:08;;;;;;;4.47;2.60;;;;;;;26.02;100.00;94700.13;5059985;28;20203;-83
2023/09/22 06:52:35;;;;;;;0.95;0.85;;;;;;;24.24;100.00;94707.50;5068558;28;20213;-81
2023/09/22 06:55:02;;;;;;;1.88;1.52;;;;;;;24.72;100.00;94710.09;5066769;28;20610;-78
2023/09/22 06:57:30;;;;;;;2.03;1.15;;;;;;;25.20;100.00;94709.03;5066733;28;20723;-82
2023/09/22 06:59:56;;;;;;;2.70;2.20;;;;;;;24.93;100.00;94702.66;5065244;28;20195;-81
2023/09/22 07:02:24;;;;;;;1.17;1.02;;;;;;;23.75;100.00;94714.34;5070619;28;20214;-83
2023/09/22 07:04:51;;;;;;;6.45;1.48;;;;;;;22.84;100.00;94724.88;5065523;28;20195;-84
2023/09/22 07:07:19;;;;;;;3.75;2.50;;;;;;;23.36;100.00;94720.97;5063770;28;20203;-79
2023/09/22 07:09:45;;;;;;;5.68;2.78;;;;;;;23.19;100.00;94721.88;5061219;28;20254;-80
2023/09/22 07:12:13;;;;;;;3.38;2.35;;;;;;;23.55;100.00;94716.09;5065079;28;20199;-80
2023/09/22 07:14:40;;;;;;;3.95;2.58;;;;;;;24.09;100.00;94717.94;5068311;28;20195;-82
2023/09/22 07:17:07;;;;;;;3.95;2.35;;;;;;;24.60;100.00;94713.38;5063221;28;20655;-82
2023/09/22 07:19:39;;;;;;;3.65;2.20;;;;;;;24.38;100.00;94721.19;5068465;28;20250;-82
2023/09/22 07:22:07;;;;;;;4.40;2.67;;;;;;;24.74;100.00;94715.97;5062343;28;20227;-81
2023/09/22 07:24:34;;;;;;;1.67;1.15;;;;;;;24.17;100.00;94715.09;5065448;28;20214;-82
2023/09/22 07:27:01;;;;;;;1.88;0.90;;;;;;;24.36;100.00;94720.03;5062574;28;20223;-77
2023/09/22 07:29:31;;;;;;;0.95;0.88;;;;;;;23.80;100.00;94722.19;5061500;28;20222;-80
2023/09/22 07:31:58;;;;;;;1.92;1.73;;;;;;;23.74;100.00;94721.84;5066145;28;20292;-81
2023/09/22 07:34:25;;;;;;;0.80;0.63;;;;;;;23.79;100.00;94725.34;5065037;28;20207;-81
2023/09/22 07:36:53;;;;;;;3.13;1.50;;;;;;;23.97;100.00;94715.69;5063083;28;20609;-83
2023/09/22 07:39:21;;;;;;;3.33;1.15;;;;;;;24.36;100.00;94718.03;5061891;28;20712;-79
2023/09/22 07:41:47;;;;;;;0.75;0.52;;;;;;;24.06;100.00;94727.03;5063874;28;20269;-83
2023/09/22 07:44:18;;;;;;;3.38;1.73;;;;;;;24.27;100.00;94712.22;5064367;28;20633;-78
2023/09/22 07:46:45;;;;;;;2.38;1.40;;;;;;;23.94;100.00;94722.03;5065120;28;20195;-77
2023/09/22 07:49:12;;;;;;;2.08;1.42;;;;;;;23.98;100.00;94720.03;5065420;28;20199;-79
2023/09/22 07:51:39;;;;;;;1.67;1.50;;;;;;;24.10;100.00;94713.97;5067627;28;20275;-78
2023/09/22 07:54:08;;;;;;;2.72;1.67;;;;;;;24.13;100.00;94711.56;5067614;28;20305;-81
2023/09/22 07:56:38;;;;;;;4.53;1.27;;;;;;;23.57;100.00;94713.72;5062419;28;20272;-77
2023/09/22 07:59:05;;;;;;;2.00;1.40;;;;;;;23.73;100.00;94713.97;5063439;28;20214;-79
2023/09/22 08:01:33;;;;;;;1.98;1.27;;;;;;;23.38;100.00;94706.72;5063437;28;20211;-80
2023/09/22 08:04:00;;;;;;;1.75;1.30;;;;;;;23.35;100.00;94713.09;5067375;28;20198;-80
2023/09/22 08:06:31;;;;;;;2.28;1.38;;;;;;;24.13;100.00;94717.09;5065233;28;20207;-82
2023/09/22 08:08:58;;;;;;;2.05;1.52;;;;;;;24.41;100.00;94711.28;5060607;28;20201;-82
2023/09/22 08:11:26;;;;;;;3.03;1.33;;;;;;;24.36;100.00;94708.94;5059002;28;20243;-81
2023/09/22 08:13:53;;;;;;;6.07;1.60;;;;;;;25.02;100.00;94708.50;5060105;28;20221;-81
2023/09/22 08:16:20;;;;;;;3.53;1.92;;;;;;;24.61;100.00;94703.88;5061169;28;20591;-79
2023/09/22 08:18:47;;;;;;;2.22;1.65;;;;;;;24.56;100.00;94707.13;5062148;28;20227;-84
2023/09/22 08:21:14;;;;;;;2.33;1.73;;;;;;;24.71;100.00;94697.44;5064504;28;20214;-79
2023/09/22 08:23:41;;;;;;;3.22;1.85;;;;;;;24.77;100.00;94711.59;5064629;28;20518;-75
2023/09/22 08:26:09;;;;;;;2.70;1.67;;;;;;;25.04;75.28;94703.31;5061557;28;20192;-78
2023/09/22 08:28:37;;;;;;;1.38;1.27;;;;;;;25.37;62.55;94699.66;5061761;28;20313;-77
2023/09/22 08:31:07;;;;;;;1.67;1.40;;;;;;;25.30;61.67;94693.41;5064948;28;20214;-77
2023/09/22 08:33:35;;;;;;;2.42;1.50;;;;;;;25.65;60.60;94692.88;5069521;28;20311;-76
2023/09/22 08:36:03;;;;;;;4.35;1.38;;;;;;;25.94;59.98;94698.69;5064713;28;20223;-74
2023/09/22 08:38:31;;;;;;;7.72;1.60;;;;;;;25.98;60.89;94688.28;5068585;28;20221;-75
2023/09/22 08:41:00;;;;;;;2.70;1.75;;;;;;;26.15;60.42;94687.19;5061131;28;20210;-76
2023/09/22 08:43:27;;;;;;;1.95;1.30;;;;;;;25.49;60.55;94689.94;5073313;28;20214;-76
2023/09/22 08:45:56;;;;;;;3.22;1.33;;;;;;;25.50;62.35;94686.75;5077298;28;20195;-77
2023/09/22 08:48:26;;;;;;;1.92;1.42;;;;;;;25.21;62.39;94677.31;5073535;28;20206;-78
2023/09/22 08:50:53;;;;;;;1.65;1.55;;;;;;;24.96;62.25;94685.22;5073571;28;20214;-77
2023/09/22 08:53:20;;;;;;;1.92;1.40;;;;;;;25.09;61.58;94677.91;5072971;28;20214;-76
2023/09/22 08:55:49;;;;;;;2.78;1.40;;;;;;;25.35;60.36;94671.53;5073135;28;20306;-76
2023/09/22 08:58:17;;;;;;;1.85;1.52;;;;;;;25.84;58.92;94671.91;5075747;28;20597;-74
2023/09/22 09:00:48;;;;;;;1.70;1.33;;;;;;;26.13;58.00;94672.94;5066108;28;20214;-73
2023/09/22 09:03:17;;;;;;;2.45;1.35;;;;;;;26.06;57.99;94656.41;5074645;28;20235;-75
2023/09/22 09:05:44;;;;;;;3.33;1.27;;;;;;;26.62;57.37;94662.06;5069504;28;20214;-74
2023/09/22 09:08:12;;;;;;;1.70;1.25;;;;;;;26.85;56.75;94661.13;5072492;28;20206;-74
2023/09/22 09:10:40;;;;;;;2.22;1.30;;;;;;;26.76;56.87;94647.84;5072290;28;20239;-75
2023/09/22 09:13:08;;;;;;;3.97;1.90;;;;;;;26.62;56.77;94653.72;5080912;28;20285;-76
2023/09/22 09:15:43;;;;;;;1.73;1.33;;;;;;;26.20;57.57;94649.81;5072595;28;20365;-75
2023/09/22 09:18:11;;;;;;;2.05;1.45;;;;;;;26.43;57.49;94635.84;5072442;28;20207;-75
2023/09/22 09:20:42;;;;;;;1.90;1.58;;;;;;;26.70;57.85;94638.44;5071056;28;20213;-75
2023/09/22 09:23:17;;;;;;;3.08;2.50;;;;;;;26.80;58.67;94639.41;5070449;28;20264;-75
2023/09/22 09:25:46;;;;;;;1.77;1.63;;;;;;;26.61;57.79;94629.91;5072799;28;20214;-75
2023/09/22 09:28:15;;;;;;;2.35;1.52;;;;;;;26.70;57.43;94632.09;5059268;28;20202;-75
2023/09/22 09:30:49;;;;;;;4.10;1.52;;;;;;;26.38;58.93;94632.78;5072925;28;20214;-75
2023/09/22 09:33:16;;;;;;;3.40;1.58;;;;;;;26.44;58.20;94625.50;5071738;28;20212;-74
2023/09/22 09:35:44;;;;;;;2.25;1.73;;;;;;;26.61;58.23;94624.34;5073119;28;20215;-74
2023/09/22 09:38:13;;;;;;;2.53;1.88;;;;;;;26.45;57.56;94621.53;5072778;28;20211;-75
2023/09/22 09:40:40;;;;;;;2.38;1.25;;;;;;;26.48;57.92;94615.13;5072730;28;20218;-75
2023/09/22 09:43:10;;;;;;;1.98;1.50;;;;;;;26.66;58.54;94611.91;5072638;28;20211;-75
2023/09/22 09:45:45;;;;;;;2.78;2.00;;;;;;;26.78;58.92;94616.84;5072858;28;20286;-75
2023/09/22 09:48:16;;;;;;;2.78;1.80;;;;;;;26.97;56.95;94616.00;5062517;28;20268;-75
2023/09/22 09:50:50;;;;;;;2.03;1.63;;;;;;;27.01;57.89;94613.13;5070400;28;20203;-75
2023/09/22 09:53:32;;;;;;;3.58;1.75;;;;;;;27.21;57.43;94616.59;5072363;28;20214;-74
2023/09/22 09:56:02;;;;;;;2.50;1.48;;;;;;;26.81;57.02;94608.38;5060202;28;20275;-74
2023/09/22 09:58:32;;;;;;;1.92;1.33;;;;;;;26.82;56.61;94601.63;5072668;28;20223;-75
2023/09/22 10:01:00;;;;;;;1.65;1.50;;;;;;;27.15;57.87;94607.22;5075496;28;20670;-74
2023/09/22 10:03:28;;;;;;;2.42;1.63;;;;;;;27.12;55.30;94614.44;5076697;28;20290;-75
2023/09/22 10:05:59;;;;;;;2.10;1.40;;;;;;;27.28;55.37;94605.31;5072614;28;20268;-75
2023/09/22 10:08:28;;;;;;;6.18;2.20;;;;;;;27.29;55.79;94606.88;5071997;28;20199;-75
2023/09/22 10:10:58;;;;;;;1.50;1.10;;;;;;;27.04;57.35;94601.94;5071752;28;20607;-75
2023/09/22 10:13:25;;;;;;;2.53;2.00;;;;;;;27.45;55.98;94603.31;5071815;28;20310;-74
2023/09/22 10:15:56;;;;;;;3.00;1.98;;;;;;;27.68;55.02;94616.25;5072278;28;20215;-74
2023/09/22 10:18:44;;;;;;;1.52;1.40;;;;;;;27.47;54.89;94604.41;5072283;28;20202;-75
2023/09/22 10:21:32;;;;;;;1.67;1.38;;;;;;;27.63;54.65;94600.84;5071661;28;20252;-75
2023/09/22 10:24:16;;;;;;;2.63;1.67;;;;;;;27.39;54.78;94597.47;5072147;28;20729;-75
2023/09/22 10:27:07;;;;;;;1.98;1.55;;;;;;;27.21;56.13;94599.91;5057519;28;20270;-74
2023/09/22 10:29:54;;;;;;;1.55;1.20;;;;;;;27.46;53.59;94590.97;5071683;28;20207;-75
2023/09/22 10:32:23;;;;;;;6.28;2.10;;;;;;;27.37;53.97;94590.78;5071750;28;20213;-75
2023/09/22 10:34:51;;;;;;;1.92;1.50;;;;;;;27.66;53.94;94586.06;5072352;28;20264;-75
2023/09/22 10:37:21;;;;;;;1.88;1.42;;;;;;;27.62;53.95;94590.16;5071459;28;20239;-76
2023/09/22 10:39:52;;;;;;;1.35;1.25;;;;;;;27.84;53.55;94578.00;5071628;28;20211;-75
2023/09/22 10:42:20;;;;;;;1.77;1.52;;;;;;;28.06;52.44;94580.19;5071560;28;20195;-75
2023/09/22 10:44:58;;;;;;;2.60;1.50;;;;;;;27.80;53.15;94573.75;5071929;28;20218;-75
2023/09/22 10:47:41;;;;;;;1.88;1.38;;;;;;;27.17;54.79;94565.88;5071413;28;20209;-76
2023/09/22 10:50:15;;;;;;;3.03;2.25;;;;;;;27.39;54.97;94566.09;5068413;28;20298;-75
2023/09/22 10:52:51;;;;;;;2.47;1.58;;;;;;;27.51;53.80;94563.34;5058380;28;20256;-75
2023/09/22 10:55:30;;;;;;;3.72;1.50;;;;;;;27.36;54.72;94561.38;5071713;28;20206;-75
2023/09/22 10:57:58;;;;;;;2.33;1.73;;;;;;;27.77;55.28;94557.91;5071660;28;20538;-75
2023/09/22 11:00:26;;;;;;;2.08;1.70;;;;;;;28.04;53.39;94547.19;5071222;28;20708;-75
2023/09/22 11:02:54;;;;;;;2.15;1.27;;;;;;;27.72;52.78;94544.56;5079324;28;20290;-75
2023/09/22 11:05:23;;;;;;;6.32;1.48;;;;;;;27.89;54.00;94543.25;5070907;28;20207;-75
2023/09/22 11:07:51;;;;;;;4.00;1.58;;;;;;;28.39;51.04;94541.84;5071276;28;20616;-75
2023/09/22 11:10:19;;;;;;;1.77;1.30;;;;;;;28.74;51.18;94551.09;5070992;28;20556;-74
2023/09/22 11:12:50;;;;;;;1.80;1.20;;;;;;;28.69;48.41;94540.50;5071326;28;20241;-75
2023/09/22 11:15:18;;;;;;;4.15;1.70;;;;;;;28.14;50.37;94537.78;5070803;28;20214;-76
2023/09/22 11:17:47;;;;;;;2.35;1.52;;;;;;;28.06;50.47;94530.81;5070809;28;20733;-76
2023/09/22 11:20:19;;;;;;;4.22;1.40;;;;;;;28.46;50.13;94525.66;5070945;28;20289;-75
2023/09/22 11:22:47;;;;;;;4.82;1.63;;;;;;;28.73;50.05;94522.41;5071134;28;20213;-75
2023/09/22 11:25:17;;;;;;;2.00;1.50;;;;;;;29.26;49.09;94525.47;5071125;28;20211;-75
2023/09/22 11:27:45;;;;;;;2.60;1.67;;;;;;;29.36;47.12;94515.97;5070707;28;20671;-74
2023/09/22 11:30:16;;;;;;;1.33;1.13;;;;;;;29.12;47.76;94514.78;5071066;28;20215;-75
2023/09/22 11:32:44;;;;;;;2.10;1.45;;;;;;;28.92;48.27;94521.44;5070871;28;20222;-73